createdAt,value
2017-03-12T00:00:02.892Z,1019.51
2017-03-12T00:01:02.908Z,1019.51
2017-03-12T00:02:02.925Z,1019.49
2017-03-12T00:03:02.940Z,1019.49
2017-03-12T00:04:02.956Z,1019.51
2017-03-12T00:05:02.974Z,1019.51
2017-03-12T00:06:02.991Z,1019.49
2017-03-12T00:07:03.005Z,1019.53
2017-03-12T00:08:03.021Z,1019.5
2017-03-12T00:09:03.037Z,1019.49
2017-03-12T00:10:03.051Z,1019.51
2017-03-12T00:11:03.068Z,1019.5
2017-03-12T00:12:03.085Z,1019.49
2017-03-12T00:14:03.115Z,1019.49
2017-03-12T00:15:03.131Z,1019.49
2017-03-12T00:16:03.148Z,1019.5
2017-03-12T00:17:03.163Z,1019.5
2017-03-12T00:18:03.179Z,1019.49
2017-03-12T00:19:03.195Z,1019.47
2017-03-12T00:20:03.210Z,1019.46
2017-03-12T00:21:03.226Z,1019.44
2017-03-12T00:22:03.243Z,1019.48
2017-03-12T00:23:03.260Z,1019.45
2017-03-12T00:24:03.273Z,1019.45
2017-03-12T00:25:03.290Z,1019.43
2017-03-12T00:26:03.307Z,1019.45
2017-03-12T00:27:03.323Z,1019.41
2017-03-12T00:28:03.340Z,1019.43
2017-03-12T00:30:03.370Z,1019.41
2017-03-12T00:31:03.386Z,1019.41
2017-03-12T00:32:03.400Z,1019.42
2017-03-12T00:33:03.418Z,1019.4
2017-03-12T00:34:03.434Z,1019.42
2017-03-12T00:35:03.446Z,1019.4
2017-03-12T00:36:03.464Z,1019.4
2017-03-12T00:37:03.480Z,1019.38
2017-03-12T00:38:03.496Z,1019.39
2017-03-12T00:39:03.511Z,1019.39
2017-03-12T00:40:03.527Z,1019.4
2017-03-12T00:41:03.543Z,1019.37
2017-03-12T00:42:03.559Z,1019.37
2017-03-12T00:43:03.574Z,1019.39
2017-03-12T00:45:03.607Z,1019.33
2017-03-12T00:46:03.622Z,1019.3
2017-03-12T00:47:03.638Z,1019.32
2017-03-12T00:48:03.654Z,1019.27
2017-03-12T00:49:03.670Z,1019.26
2017-03-12T00:50:03.684Z,1019.29
2017-03-12T00:51:03.701Z,1019.3
2017-03-12T00:52:03.717Z,1019.26
2017-03-12T00:53:03.732Z,1019.31
2017-03-12T00:54:03.751Z,1019.29
2017-03-12T00:55:03.763Z,1019.3
2017-03-12T00:56:03.779Z,1019.24
2017-03-12T00:57:03.794Z,1019.27
2017-03-12T00:58:03.810Z,1019.29
2017-03-12T00:59:03.827Z,1019.28
2017-03-12T01:00:03.842Z,1019.27
2017-03-12T01:01:03.857Z,1019.27
2017-03-12T01:02:03.873Z,1019.31
2017-03-12T01:03:03.889Z,1019.26
2017-03-12T01:04:03.903Z,1019.24
2017-03-12T01:05:03.920Z,1019.25
2017-03-12T01:06:03.935Z,1019.23
2017-03-12T01:07:03.952Z,1019.25
2017-03-12T01:08:03.967Z,1019.25
2017-03-12T01:09:03.982Z,1019.23
2017-03-12T01:10:03.998Z,1019.21
2017-03-12T01:11:04.013Z,1019.19
2017-03-12T01:12:04.028Z,1019.16
2017-03-12T01:13:04.044Z,1019.14
2017-03-12T01:14:04.060Z,1019.2
2017-03-12T01:15:04.075Z,1019.16
2017-03-12T01:17:04.106Z,1019.17
2017-03-12T01:18:04.123Z,1019.17
2017-03-12T01:19:04.165Z,1019.21
2017-03-12T01:20:04.154Z,1019.18
2017-03-12T01:21:04.169Z,1019.21
2017-03-12T01:22:04.185Z,1019.18
2017-03-12T01:23:04.200Z,1019.14
2017-03-12T01:24:04.214Z,1019.17
2017-03-12T01:25:04.231Z,1019.16
2017-03-12T01:26:04.246Z,1019.12
2017-03-12T01:27:04.262Z,1019.14
2017-03-12T01:28:04.279Z,1019.06
2017-03-12T01:29:04.292Z,1019.09
2017-03-12T01:30:04.307Z,1019.05
2017-03-12T01:31:04.323Z,1019.08
2017-03-12T01:33:04.355Z,1019.07
2017-03-12T01:34:04.370Z,1019.08
2017-03-12T01:35:04.385Z,1019.07
2017-03-12T01:36:04.401Z,1019.08
2017-03-12T01:37:04.415Z,1019.07
2017-03-12T01:38:04.431Z,1019.03
2017-03-12T01:39:04.447Z,1019.08
2017-03-12T01:40:04.462Z,1019.08
2017-03-12T01:41:04.477Z,1019.1
2017-03-12T01:42:04.493Z,1019.13
2017-03-12T01:43:04.508Z,1019.13
2017-03-12T01:44:04.524Z,1019.1
2017-03-12T01:45:04.538Z,1019.11
2017-03-12T01:46:04.556Z,1019.07
2017-03-12T01:47:04.569Z,1019.12
2017-03-12T01:49:04.600Z,1019.09
2017-03-12T01:50:04.616Z,1019.04
2017-03-12T01:51:04.630Z,1019.07
2017-03-12T01:52:04.646Z,1019.06
2017-03-12T01:53:04.662Z,1019.03
2017-03-12T01:54:04.676Z,1019.03
2017-03-12T01:55:04.693Z,1019.01
2017-03-12T01:56:04.707Z,1019.02
2017-03-12T01:57:04.722Z,1019.03
2017-03-12T01:58:04.738Z,1019.04
2017-03-12T01:59:04.752Z,1018.98
2017-03-12T02:00:04.767Z,1018.96
2017-03-12T02:01:04.934Z,1018.96
2017-03-12T02:02:04.799Z,1018.92
2017-03-12T02:03:04.814Z,1018.92
2017-03-12T02:05:04.845Z,1018.92
2017-03-12T02:06:04.860Z,1018.92
2017-03-12T02:07:04.874Z,1018.92
2017-03-12T02:08:04.889Z,1018.89
2017-03-12T02:09:04.906Z,1018.96
2017-03-12T02:10:04.921Z,1018.93
2017-03-12T02:11:04.936Z,1018.94
2017-03-12T02:12:04.951Z,1018.94
2017-03-12T02:13:04.966Z,1018.94
2017-03-12T02:14:04.985Z,1018.95
2017-03-12T02:15:04.996Z,1018.95
2017-03-12T02:16:05.012Z,1018.94
2017-03-12T02:17:05.027Z,1018.93
2017-03-12T02:18:05.043Z,1018.89
2017-03-12T02:20:05.078Z,1018.91
2017-03-12T02:21:05.088Z,1018.9
2017-03-12T02:22:05.104Z,1018.92
2017-03-12T02:23:05.119Z,1018.88
2017-03-12T02:24:05.134Z,1018.88
2017-03-12T02:25:05.149Z,1018.89
2017-03-12T02:26:05.162Z,1018.88
2017-03-12T02:27:05.179Z,1018.9
2017-03-12T02:28:05.192Z,1018.92
2017-03-12T02:29:05.209Z,1018.91
2017-03-12T02:30:05.224Z,1018.9
2017-03-12T02:31:05.239Z,1018.87
2017-03-12T02:32:05.254Z,1018.87
2017-03-12T02:33:05.268Z,1018.85
2017-03-12T02:34:05.283Z,1018.79
2017-03-12T02:35:05.299Z,1018.82
2017-03-12T02:36:05.313Z,1018.82
2017-03-12T02:37:05.328Z,1018.79
2017-03-12T02:38:05.344Z,1018.79
2017-03-12T02:39:05.358Z,1018.82
2017-03-12T02:40:05.373Z,1018.81
2017-03-12T02:41:05.389Z,1018.76
2017-03-12T02:42:05.404Z,1018.78
2017-03-12T02:43:05.419Z,1018.76
2017-03-12T02:44:05.433Z,1018.78
2017-03-12T02:45:05.451Z,1018.79
2017-03-12T02:46:05.464Z,1018.78
2017-03-12T02:47:05.479Z,1018.75
2017-03-12T02:48:05.494Z,1018.76
2017-03-12T02:49:05.511Z,1018.75
2017-03-12T02:50:05.548Z,1018.78
2017-03-12T02:52:05.555Z,1018.76
2017-03-12T02:53:05.570Z,1018.73
2017-03-12T02:54:05.584Z,1018.7
2017-03-12T02:55:05.600Z,1018.69
2017-03-12T02:56:05.615Z,1018.7
2017-03-12T02:57:05.630Z,1018.68
2017-03-12T02:58:05.646Z,1018.73
2017-03-12T02:59:05.660Z,1018.72
2017-03-12T03:00:05.675Z,1018.72
2017-03-12T03:01:05.689Z,1018.73
2017-03-12T03:02:05.703Z,1018.73
2017-03-12T03:03:05.720Z,1018.71
2017-03-12T03:04:05.735Z,1018.7
2017-03-12T03:05:05.748Z,1018.73
2017-03-12T03:06:05.764Z,1018.72
2017-03-12T03:08:05.794Z,1018.67
2017-03-12T03:09:05.809Z,1018.73
2017-03-12T03:10:05.824Z,1018.71
2017-03-12T03:11:05.839Z,1018.74
2017-03-12T03:12:05.854Z,1018.73
2017-03-12T03:13:05.869Z,1018.73
2017-03-12T03:14:05.885Z,1018.72
2017-03-12T03:15:05.899Z,1018.75
2017-03-12T03:16:05.913Z,1018.72
2017-03-12T03:17:05.928Z,1018.72
2017-03-12T03:18:05.944Z,1018.78
2017-03-12T03:19:05.958Z,1018.77
2017-03-12T03:20:05.973Z,1018.75
2017-03-12T03:21:05.988Z,1018.76
2017-03-12T03:22:06.002Z,1018.74
2017-03-12T03:24:06.033Z,1018.75
2017-03-12T03:25:06.047Z,1018.76
2017-03-12T03:26:06.063Z,1018.78
2017-03-12T03:27:06.078Z,1018.81
2017-03-12T03:28:06.091Z,1018.76
2017-03-12T03:29:06.107Z,1018.79
2017-03-12T03:30:06.121Z,1018.77
2017-03-12T03:31:06.138Z,1018.8
2017-03-12T03:32:06.151Z,1018.8
2017-03-12T03:33:06.166Z,1018.77
2017-03-12T03:34:06.180Z,1018.76
2017-03-12T03:35:06.196Z,1018.75
2017-03-12T03:36:06.211Z,1018.77
2017-03-12T03:37:06.226Z,1018.76
2017-03-12T03:38:06.239Z,1018.76
2017-03-12T03:40:06.270Z,1018.73
2017-03-12T03:41:06.285Z,1018.71
2017-03-12T03:42:06.299Z,1018.76
2017-03-12T03:43:06.314Z,1018.73
2017-03-12T03:44:06.329Z,1018.73
2017-03-12T03:45:06.343Z,1018.73
2017-03-12T03:46:06.358Z,1018.72
2017-03-12T03:47:06.373Z,1018.73
2017-03-12T03:48:06.389Z,1018.7
2017-03-12T03:49:06.403Z,1018.72
2017-03-12T03:50:06.420Z,1018.7
2017-03-12T03:51:06.433Z,1018.72
2017-03-12T03:52:06.449Z,1018.65
2017-03-12T03:53:06.463Z,1018.68
2017-03-12T03:55:06.493Z,1018.68
2017-03-12T03:56:06.507Z,1018.65
2017-03-12T03:57:06.522Z,1018.69
2017-03-12T03:58:06.537Z,1018.7
2017-03-12T03:59:06.551Z,1018.68
2017-03-12T04:00:06.565Z,1018.67
2017-03-12T04:01:06.581Z,1018.71
2017-03-12T04:02:06.600Z,1018.65
2017-03-12T04:03:06.611Z,1018.68
2017-03-12T04:04:06.624Z,1018.68
2017-03-12T04:05:06.640Z,1018.66
2017-03-12T04:06:06.654Z,1018.67
2017-03-12T04:07:06.668Z,1018.7
2017-03-12T04:08:06.683Z,1018.66
2017-03-12T04:09:06.698Z,1018.69
2017-03-12T04:10:06.716Z,1018.7
2017-03-12T04:11:06.727Z,1018.67
2017-03-12T04:12:06.743Z,1018.71
2017-03-12T04:13:06.756Z,1018.73
2017-03-12T04:14:06.770Z,1018.67
2017-03-12T04:15:06.786Z,1018.7
2017-03-12T04:16:06.801Z,1018.67
2017-03-12T04:17:06.816Z,1018.67
2017-03-12T04:18:06.830Z,1018.67
2017-03-12T04:19:06.844Z,1018.67
2017-03-12T04:20:06.860Z,1018.65
2017-03-12T04:21:06.875Z,1018.7
2017-03-12T04:22:06.891Z,1018.65
2017-03-12T04:23:06.903Z,1018.66
2017-03-12T04:24:06.918Z,1018.65
2017-03-12T04:25:06.932Z,1018.63
2017-03-12T04:27:06.962Z,1018.67
2017-03-12T04:28:06.976Z,1018.7
2017-03-12T04:29:06.991Z,1018.68
2017-03-12T04:30:07.011Z,1018.65
2017-03-12T04:31:07.028Z,1018.66
2017-03-12T04:32:07.035Z,1018.65
2017-03-12T04:33:07.049Z,1018.63
2017-03-12T04:34:07.313Z,1018.64
2017-03-12T04:35:07.079Z,1018.63
2017-03-12T04:36:07.092Z,1018.64
2017-03-12T04:37:07.107Z,1018.68
2017-03-12T04:38:07.125Z,1018.64
2017-03-12T04:39:07.137Z,1018.68
2017-03-12T04:40:07.150Z,1018.71
2017-03-12T04:41:07.166Z,1018.69
2017-03-12T04:43:07.195Z,1018.72
2017-03-12T04:44:07.209Z,1018.72
2017-03-12T04:45:07.223Z,1018.71
2017-03-12T04:46:07.238Z,1018.69
2017-03-12T04:47:07.252Z,1018.71
2017-03-12T04:48:07.266Z,1018.69
2017-03-12T04:49:07.282Z,1018.71
2017-03-12T04:50:07.297Z,1018.74
2017-03-12T04:51:07.316Z,1018.71
2017-03-12T04:52:07.326Z,1018.71
2017-03-12T04:53:07.338Z,1018.76
2017-03-12T04:54:07.354Z,1018.7
2017-03-12T04:55:07.368Z,1018.79
2017-03-12T04:56:07.383Z,1018.74
2017-03-12T04:57:07.398Z,1018.77
2017-03-12T04:59:07.426Z,1018.77
2017-03-12T05:00:07.440Z,1018.75
2017-03-12T05:01:07.457Z,1018.76
2017-03-12T05:02:07.469Z,1018.78
2017-03-12T05:03:07.483Z,1018.8
2017-03-12T05:04:07.498Z,1018.79
2017-03-12T05:05:07.513Z,1018.8
2017-03-12T05:06:07.527Z,1018.83
2017-03-12T05:07:07.542Z,1018.83
2017-03-12T05:08:07.556Z,1018.85
2017-03-12T05:09:07.570Z,1018.82
2017-03-12T05:10:07.585Z,1018.89
2017-03-12T05:11:07.600Z,1018.88
2017-03-12T05:12:07.619Z,1018.9
2017-03-12T05:13:07.628Z,1018.91
2017-03-12T05:15:07.657Z,1018.9
2017-03-12T05:16:07.672Z,1018.86
2017-03-12T05:17:07.685Z,1018.92
2017-03-12T05:18:07.699Z,1018.9
2017-03-12T05:19:07.714Z,1018.88
2017-03-12T05:20:07.729Z,1018.9
2017-03-12T05:21:07.742Z,1018.89
2017-03-12T05:22:07.757Z,1018.88
2017-03-12T05:23:07.772Z,1018.93
2017-03-12T05:24:07.786Z,1018.95
2017-03-12T05:25:07.805Z,1018.95
2017-03-12T05:26:07.814Z,1018.93
2017-03-12T05:27:07.830Z,1018.94
2017-03-12T05:28:07.845Z,1018.93
2017-03-12T05:30:07.874Z,1018.91
2017-03-12T05:31:07.888Z,1018.95
2017-03-12T05:32:07.901Z,1018.92
2017-03-12T05:33:07.917Z,1018.98
2017-03-12T05:34:07.932Z,1018.95
2017-03-12T05:35:07.944Z,1018.88
2017-03-12T05:36:07.958Z,1018.96
2017-03-12T05:37:07.974Z,1018.94
2017-03-12T05:38:07.987Z,1018.99
2017-03-12T05:39:08.001Z,1018.95
2017-03-12T05:40:08.017Z,1018.97
2017-03-12T05:41:08.032Z,1019.01
2017-03-12T05:42:08.046Z,1018.95
2017-03-12T05:43:08.060Z,1018.96
2017-03-12T05:44:08.125Z,1018.94
2017-03-12T05:45:08.090Z,1018.94
2017-03-12T05:46:08.102Z,1018.94
2017-03-12T05:47:08.118Z,1018.95
2017-03-12T05:48:08.133Z,1018.93
2017-03-12T05:49:08.147Z,1018.92
2017-03-12T05:50:08.161Z,1018.92
2017-03-12T05:51:08.176Z,1018.9
2017-03-12T05:52:08.191Z,1018.94
2017-03-12T05:53:08.203Z,1018.94
2017-03-12T05:54:08.219Z,1018.93
2017-03-12T05:55:08.234Z,1018.94
2017-03-12T05:56:08.247Z,1018.97
2017-03-12T05:57:08.263Z,1018.93
2017-03-12T05:58:08.277Z,1018.98
2017-03-12T05:59:08.292Z,1019.01
2017-03-12T06:00:08.305Z,1018.97
2017-03-12T06:02:08.335Z,1018.95
2017-03-12T06:03:08.351Z,1019.01
2017-03-12T06:04:08.364Z,1019.02
2017-03-12T06:05:08.381Z,1019.04
2017-03-12T06:06:08.396Z,1019.01
2017-03-12T06:07:08.411Z,1019
2017-03-12T06:08:08.426Z,1019
2017-03-12T06:09:08.442Z,1018.99
2017-03-12T06:10:08.457Z,1018.95
2017-03-12T06:11:08.472Z,1018.67
2017-03-12T06:12:08.488Z,1018.57
2017-03-12T06:13:08.505Z,1018.44
2017-03-12T06:14:08.521Z,1018.43
2017-03-12T06:15:08.537Z,1018.42
2017-03-12T06:16:08.553Z,1018.37
2017-03-12T06:18:08.588Z,1018.35
2017-03-12T06:19:08.606Z,1018.34
2017-03-12T06:20:08.625Z,1018.39
2017-03-12T06:21:08.643Z,1018.37
2017-03-12T06:22:08.662Z,1018.38
2017-03-12T06:23:08.681Z,1018.44
2017-03-12T06:24:08.701Z,1018.45
2017-03-12T06:25:08.721Z,1018.55
2017-03-12T06:26:08.741Z,1018.56
2017-03-12T06:27:08.761Z,1018.58
2017-03-12T06:28:08.783Z,1018.6
2017-03-12T06:29:08.804Z,1018.7
2017-03-12T06:30:08.824Z,1018.7
2017-03-12T06:31:08.846Z,1018.75
2017-03-12T06:32:08.867Z,1018.8
2017-03-12T06:34:08.912Z,1018.91
2017-03-12T06:35:08.935Z,1018.97
2017-03-12T06:36:08.957Z,1019.04
2017-03-12T06:37:08.979Z,1019.09
2017-03-12T06:38:09.001Z,1019.11
2017-03-12T06:39:09.026Z,1019.17
2017-03-12T06:40:09.048Z,1019.23
2017-03-12T06:41:09.072Z,1019.29
2017-03-12T06:42:09.096Z,1019.36
2017-03-12T06:43:09.120Z,1019.41
2017-03-12T06:44:09.143Z,1019.41
2017-03-12T06:45:09.167Z,1019.53
2017-03-12T06:46:09.191Z,1019.52
2017-03-12T06:47:09.220Z,1019.59
2017-03-12T06:48:09.239Z,1019.6
2017-03-12T06:50:09.289Z,1019.65
2017-03-12T06:51:09.313Z,1019.7
2017-03-12T06:52:09.337Z,1019.7
2017-03-12T06:53:09.362Z,1019.78
2017-03-12T06:54:09.388Z,1019.77
2017-03-12T06:55:09.411Z,1019.78
2017-03-12T06:56:09.437Z,1019.82
2017-03-12T06:57:09.462Z,1019.82
2017-03-12T06:58:09.487Z,1019.83
2017-03-12T06:59:09.511Z,1019.82
2017-03-12T07:00:09.537Z,1019.63
2017-03-12T07:01:09.562Z,1019.67
2017-03-12T07:02:09.587Z,1019.61
2017-03-12T07:03:09.613Z,1019.54
2017-03-12T07:05:09.662Z,1019.56
2017-03-12T07:06:09.684Z,1019.56
2017-03-12T07:07:09.710Z,1019.49
2017-03-12T07:08:09.734Z,1019.49
2017-03-12T07:09:09.757Z,1019.52
2017-03-12T07:10:09.779Z,1019.51
2017-03-12T07:11:09.802Z,1019.47
2017-03-12T07:12:09.830Z,1019.5
2017-03-12T07:13:09.846Z,1019.5
2017-03-12T07:14:09.868Z,1019.51
2017-03-12T07:15:09.892Z,1019.52
2017-03-12T07:16:09.912Z,1019.48
2017-03-12T07:17:09.933Z,1019.48
2017-03-12T07:18:09.954Z,1019.48
2017-03-12T07:19:09.975Z,1019.44
2017-03-12T07:20:09.996Z,1019.47
2017-03-12T07:21:10.014Z,1019.41
2017-03-12T07:22:10.036Z,1019.44
2017-03-12T07:23:10.055Z,1019.43
2017-03-12T07:24:10.074Z,1019.43
2017-03-12T07:25:10.096Z,1019.46
2017-03-12T07:26:10.116Z,1019.44
2017-03-12T07:27:10.136Z,1019.41
2017-03-12T07:28:10.155Z,1019.41
2017-03-12T07:29:10.174Z,1019.37
2017-03-12T07:30:10.194Z,1019.46
2017-03-12T07:31:10.214Z,1019.47
2017-03-12T07:32:10.232Z,1019.46
2017-03-12T07:33:10.251Z,1019.46
2017-03-12T07:34:10.271Z,1019.48
2017-03-12T07:35:10.288Z,1019.46
2017-03-12T07:37:10.327Z,1019.53
2017-03-12T07:38:10.347Z,1019.51
2017-03-12T07:39:10.363Z,1019.52
2017-03-12T07:40:10.383Z,1019.53
2017-03-12T07:41:10.402Z,1019.52
2017-03-12T07:42:10.425Z,1019.56
2017-03-12T07:43:10.438Z,1019.55
2017-03-12T07:44:10.457Z,1019.51
2017-03-12T07:45:10.476Z,1019.58
2017-03-12T07:46:10.492Z,1019.53
2017-03-12T07:47:10.515Z,1019.54
2017-03-12T07:48:10.530Z,1019.56
2017-03-12T07:49:10.549Z,1019.63
2017-03-12T07:50:10.592Z,1019.62
2017-03-12T07:51:10.585Z,1019.63
2017-03-12T07:53:10.621Z,1019.65
2017-03-12T07:54:10.638Z,1019.64
2017-03-12T07:55:10.656Z,1019.63
2017-03-12T07:56:10.675Z,1019.66
2017-03-12T07:57:10.692Z,1019.62
2017-03-12T07:58:10.710Z,1019.63
2017-03-12T07:59:10.729Z,1019.63
2017-03-12T08:00:10.747Z,1019.59
2017-03-12T08:01:10.765Z,1019.6
2017-03-12T08:02:10.782Z,1019.64
2017-03-12T08:03:10.800Z,1019.57
2017-03-12T08:04:10.819Z,1019.63
2017-03-12T08:05:10.836Z,1019.61
2017-03-12T08:06:10.853Z,1019.62
2017-03-12T08:07:10.871Z,1019.58
2017-03-12T08:09:10.907Z,1019.58
2017-03-12T08:10:10.926Z,1019.54
2017-03-12T08:11:10.943Z,1019.54
2017-03-12T08:12:10.960Z,1019.59
2017-03-12T08:13:10.978Z,1019.56
2017-03-12T08:14:10.997Z,1019.63
2017-03-12T08:15:11.014Z,1019.59
2017-03-12T08:16:11.031Z,1019.64
2017-03-12T08:17:11.049Z,1019.66
2017-03-12T08:18:11.067Z,1019.67
2017-03-12T08:19:11.084Z,1019.66
2017-03-12T08:20:11.102Z,1019.68
2017-03-12T08:21:11.120Z,1019.63
2017-03-12T08:22:11.138Z,1019.69
2017-03-12T08:23:11.155Z,1019.71
2017-03-12T08:25:11.213Z,1019.69
2017-03-12T08:26:11.213Z,1019.7
2017-03-12T08:27:11.226Z,1019.68
2017-03-12T08:28:11.244Z,1019.65
2017-03-12T08:29:11.262Z,1019.66
2017-03-12T08:30:11.280Z,1019.63
2017-03-12T08:31:11.298Z,1019.63
2017-03-12T08:32:11.317Z,1019.67
2017-03-12T08:33:11.334Z,1019.65
2017-03-12T08:34:11.351Z,1019.64
2017-03-12T08:35:11.369Z,1019.66
2017-03-12T08:36:11.387Z,1019.71
2017-03-12T08:37:11.406Z,1019.66
2017-03-12T08:38:11.423Z,1019.7
2017-03-12T08:40:11.459Z,1019.66
2017-03-12T08:41:11.477Z,1019.69
2017-03-12T08:42:11.497Z,1019.65
2017-03-12T08:43:11.514Z,1019.7
2017-03-12T08:44:11.532Z,1019.66
2017-03-12T08:45:11.549Z,1019.66
2017-03-12T08:46:11.567Z,1019.63
2017-03-12T08:47:11.585Z,1019.63
2017-03-12T08:48:11.603Z,1019.64
2017-03-12T08:49:11.621Z,1019.62
2017-03-12T08:50:11.640Z,1019.65
2017-03-12T08:51:11.658Z,1019.64
2017-03-12T08:52:11.675Z,1019.63
2017-03-12T08:53:11.694Z,1019.64
2017-03-12T08:54:11.711Z,1019.65
2017-03-12T08:55:11.731Z,1019.63
2017-03-12T08:56:11.748Z,1019.68
2017-03-12T08:57:11.768Z,1019.68
2017-03-12T08:58:11.785Z,1019.65
2017-03-12T08:59:11.802Z,1019.66
2017-03-12T09:00:11.821Z,1019.64
2017-03-12T09:01:11.839Z,1019.58
2017-03-12T09:02:11.858Z,1019.61
2017-03-12T09:03:11.880Z,1019.63
2017-03-12T09:04:11.895Z,1019.6
2017-03-12T09:05:11.941Z,1019.58
2017-03-12T09:06:11.931Z,1019.54
2017-03-12T09:07:11.948Z,1019.55
2017-03-12T09:08:11.967Z,1019.56
2017-03-12T09:09:11.986Z,1019.59
2017-03-12T09:10:12.003Z,1019.53
2017-03-12T09:12:12.040Z,1019.52
2017-03-12T09:13:12.059Z,1019.52
2017-03-12T09:14:12.076Z,1019.46
2017-03-12T09:15:12.095Z,1019.44
2017-03-12T09:16:12.113Z,1019.44
2017-03-12T09:17:12.132Z,1019.47
2017-03-12T09:18:12.149Z,1019.46
2017-03-12T09:19:12.168Z,1019.47
2017-03-12T09:20:12.187Z,1019.45
2017-03-12T09:21:12.204Z,1019.5
2017-03-12T09:22:12.223Z,1019.45
2017-03-12T09:23:12.242Z,1019.43
2017-03-12T09:24:12.261Z,1019.44
2017-03-12T09:25:12.278Z,1019.42
2017-03-12T09:26:12.297Z,1019.47
2017-03-12T09:28:12.335Z,1019.45
2017-03-12T09:29:12.352Z,1019.46
2017-03-12T09:30:12.372Z,1019.48
2017-03-12T09:31:12.391Z,1019.5
2017-03-12T09:32:12.408Z,1019.49
2017-03-12T09:33:12.427Z,1019.52
2017-03-12T09:34:12.446Z,1019.5
2017-03-12T09:35:12.465Z,1019.5
2017-03-12T09:36:12.482Z,1019.51
2017-03-12T09:37:12.501Z,1019.47
2017-03-12T09:38:12.521Z,1019.51
2017-03-12T09:39:12.539Z,1019.49
2017-03-12T09:40:12.557Z,1019.46
2017-03-12T09:41:12.575Z,1019.48
2017-03-12T09:42:12.594Z,1019.49
2017-03-12T09:44:12.632Z,1019.5
2017-03-12T09:45:12.650Z,1019.48
2017-03-12T09:46:12.670Z,1019.51
2017-03-12T09:47:12.687Z,1019.51
2017-03-12T09:48:12.707Z,1019.5
2017-03-12T09:49:12.725Z,1019.56
2017-03-12T09:50:12.745Z,1019.53
2017-03-12T09:51:12.763Z,1019.48
2017-03-12T09:52:12.782Z,1019.46
2017-03-12T09:53:12.802Z,1019.48
2017-03-12T09:54:12.820Z,1019.5
2017-03-12T09:55:12.840Z,1019.53
2017-03-12T09:56:12.859Z,1019.52
2017-03-12T09:57:12.878Z,1019.58
2017-03-12T09:58:12.897Z,1019.57
2017-03-12T10:00:12.935Z,1019.51
2017-03-12T10:01:12.955Z,1019.49
2017-03-12T10:02:12.973Z,1019.49
2017-03-12T10:03:12.993Z,1019.5
2017-03-12T10:04:13.012Z,1019.52
2017-03-12T10:05:13.031Z,1019.56
2017-03-12T10:06:13.050Z,1019.53
2017-03-12T10:07:13.070Z,1019.53
2017-03-12T10:08:13.089Z,1019.53
2017-03-12T10:09:13.107Z,1019.51
2017-03-12T10:10:13.126Z,1019.5
2017-03-12T10:11:13.146Z,1019.53
2017-03-12T10:12:13.165Z,1019.59
2017-03-12T10:13:13.185Z,1019.55
2017-03-12T10:15:13.225Z,1019.52
2017-03-12T10:16:13.242Z,1019.52
2017-03-12T10:17:13.261Z,1019.48
2017-03-12T10:18:13.281Z,1019.5
2017-03-12T10:19:13.306Z,1019.52
2017-03-12T10:20:13.319Z,1019.44
2017-03-12T10:21:13.338Z,1019.5
2017-03-12T10:22:13.357Z,1019.48
2017-03-12T10:23:13.375Z,1019.51
2017-03-12T10:24:13.395Z,1019.5
2017-03-12T10:25:13.415Z,1019.52
2017-03-12T10:26:13.435Z,1019.48
2017-03-12T10:27:13.453Z,1019.52
2017-03-12T10:28:13.472Z,1019.46
2017-03-12T10:29:13.492Z,1019.47
2017-03-12T10:30:13.512Z,1019.47
2017-03-12T10:31:13.530Z,1019.47
2017-03-12T10:32:13.551Z,1019.42
2017-03-12T10:33:13.569Z,1019.49
2017-03-12T10:34:13.588Z,1019.55
2017-03-12T10:35:13.608Z,1019.5
2017-03-12T10:36:13.627Z,1019.56
2017-03-12T10:37:13.647Z,1019.5
2017-03-12T10:38:13.665Z,1019.49
2017-03-12T10:39:13.685Z,1019.45
2017-03-12T10:40:13.704Z,1019.47
2017-03-12T10:41:13.724Z,1019.49
2017-03-12T10:42:13.742Z,1019.47
2017-03-12T10:43:13.762Z,1019.47
2017-03-12T10:44:13.781Z,1019.47
2017-03-12T10:45:13.801Z,1019.46
2017-03-12T10:47:13.839Z,1019.45
2017-03-12T10:48:13.859Z,1019.46
2017-03-12T10:49:13.878Z,1019.46
2017-03-12T10:50:13.929Z,1019.46
2017-03-12T10:51:13.917Z,1019.46
2017-03-12T10:52:13.936Z,1019.41
2017-03-12T10:53:13.954Z,1019.4
2017-03-12T10:54:13.978Z,1019.38
2017-03-12T10:55:13.994Z,1019.42
2017-03-12T10:56:14.012Z,1019.43
2017-03-12T10:57:14.032Z,1019.35
2017-03-12T10:58:14.051Z,1019.39
2017-03-12T10:59:14.072Z,1019.33
2017-03-12T11:00:14.091Z,1019.36
2017-03-12T11:01:14.110Z,1019.34
2017-03-12T11:03:14.149Z,1019.39
2017-03-12T11:04:14.167Z,1019.39
2017-03-12T11:05:14.188Z,1019.35
2017-03-12T11:06:14.207Z,1019.38
2017-03-12T11:07:14.226Z,1019.32
2017-03-12T11:08:14.245Z,1019.31
2017-03-12T11:09:14.266Z,1019.31
2017-03-12T11:10:14.285Z,1019.3
2017-03-12T11:11:14.304Z,1019.31
2017-03-12T11:12:14.323Z,1019.32
2017-03-12T11:13:14.344Z,1019.34
2017-03-12T11:14:14.363Z,1019.3
2017-03-12T11:15:14.382Z,1019.32
2017-03-12T11:16:14.402Z,1019.29
2017-03-12T11:17:14.422Z,1019.28
2017-03-12T11:19:14.460Z,1019.21
2017-03-12T11:20:14.480Z,1019.17
2017-03-12T11:21:14.500Z,1019.18
2017-03-12T11:22:14.518Z,1019.16
2017-03-12T11:23:14.538Z,1019.24
2017-03-12T11:24:14.557Z,1019.19
2017-03-12T11:25:14.577Z,1019.21
2017-03-12T11:26:14.597Z,1019.23
2017-03-12T11:27:14.617Z,1019.24
2017-03-12T11:28:14.637Z,1019.27
2017-03-12T11:29:14.656Z,1019.26
2017-03-12T11:30:14.675Z,1019.25
2017-03-12T11:31:14.696Z,1019.22
2017-03-12T11:32:14.715Z,1019.19
2017-03-12T11:33:14.734Z,1019.16
2017-03-12T11:35:14.774Z,1019.14
2017-03-12T11:36:14.794Z,1019.19
2017-03-12T11:37:14.812Z,1019.16
2017-03-12T11:38:14.833Z,1019.15
2017-03-12T11:39:14.855Z,1019.14
2017-03-12T11:40:14.872Z,1019.14
2017-03-12T11:41:14.892Z,1019.17
2017-03-12T11:42:14.912Z,1019.21
2017-03-12T11:43:14.932Z,1019.17
2017-03-12T11:44:14.951Z,1019.22
2017-03-12T11:45:14.969Z,1019.24
2017-03-12T11:46:14.990Z,1019.19
2017-03-12T11:47:15.010Z,1019.18
2017-03-12T11:48:15.030Z,1019.17
2017-03-12T11:50:15.070Z,1019.13
2017-03-12T11:51:15.089Z,1019.14
2017-03-12T11:52:15.108Z,1019.1
2017-03-12T11:53:15.129Z,1019.12
2017-03-12T11:54:15.148Z,1019.08
2017-03-12T11:55:15.167Z,1019.11
2017-03-12T11:56:15.187Z,1019.11
2017-03-12T11:57:15.207Z,1019.05
2017-03-12T11:58:15.225Z,1019.02
2017-03-12T11:59:15.245Z,1019.01
2017-03-12T12:00:15.265Z,1019
2017-03-12T12:01:15.284Z,1018.95
2017-03-12T12:02:15.303Z,1018.97
2017-03-12T12:03:15.322Z,1018.92
2017-03-12T12:04:15.342Z,1018.93
2017-03-12T12:05:15.362Z,1018.88
2017-03-12T12:06:15.379Z,1018.9
2017-03-12T12:07:15.400Z,1018.9
2017-03-12T12:08:15.418Z,1018.86
2017-03-12T12:09:15.438Z,1018.91
2017-03-12T12:10:15.457Z,1018.87
2017-03-12T12:11:15.476Z,1018.89
2017-03-12T12:12:15.498Z,1018.94
2017-03-12T12:13:15.515Z,1018.89
2017-03-12T12:14:15.534Z,1018.86
2017-03-12T12:15:15.553Z,1018.88
2017-03-12T12:16:15.573Z,1018.76
2017-03-12T12:17:15.592Z,1018.78
2017-03-12T12:18:15.611Z,1018.8
2017-03-12T12:19:15.632Z,1018.77
2017-03-12T12:20:15.649Z,1018.74
2017-03-12T12:22:15.688Z,1018.76
2017-03-12T12:23:15.707Z,1018.72
2017-03-12T12:24:15.728Z,1018.74
2017-03-12T12:25:15.746Z,1018.71
2017-03-12T12:26:15.766Z,1018.72
2017-03-12T12:27:15.786Z,1018.69
2017-03-12T12:28:15.804Z,1018.65
2017-03-12T12:29:15.824Z,1018.72
2017-03-12T12:30:15.844Z,1018.7
2017-03-12T12:31:15.862Z,1018.72
2017-03-12T12:32:15.881Z,1018.69
2017-03-12T12:33:15.901Z,1018.77
2017-03-12T12:34:15.921Z,1018.69
2017-03-12T12:35:15.940Z,1018.72
2017-03-12T12:36:15.959Z,1018.76
2017-03-12T12:38:15.999Z,1018.66
2017-03-12T12:39:16.017Z,1018.67
2017-03-12T12:40:16.037Z,1018.68
2017-03-12T12:41:16.057Z,1018.64
2017-03-12T12:42:16.075Z,1018.7
2017-03-12T12:43:16.096Z,1018.66
2017-03-12T12:44:16.115Z,1018.6
2017-03-12T12:45:16.135Z,1018.61
2017-03-12T12:46:16.153Z,1018.64
2017-03-12T12:47:16.172Z,1018.59
2017-03-12T12:48:16.193Z,1018.62